sensor_id;sensor_type;location;lat;lon;timestamp;pressure;altitude;pressure_sealevel;temperature;humidity
49178;BME280;35016;55.674;37.468;2023-02-11T00:01:44;98951.03;;;-1.85;65.84
49178;BME280;35016;55.674;37.468;2023-02-11T00:04:10;98942.44;;;-1.87;66.44
49178;BME280;35016;55.674;37.468;2023-02-11T00:06:37;98964.28;;;-1.92;66.26
49178;BME280;35016;55.674;37.468;2023-02-11T00:09:04;98949.53;;;-1.94;66.17
49178;BME280;35016;55.674;37.468;2023-02-11T00:11:33;98942.97;;;-1.98;66.35
49178;BME280;35016;55.674;37.468;2023-02-11T00:14:02;98967.28;;;-2.01;66.41
49178;BME280;35016;55.674;37.468;2023-02-11T00:16:29;98936.78;;;-2.05;66.44
49178;BME280;35016;55.674;37.468;2023-02-11T00:18:59;98935.50;;;-2.09;66.40
49178;BME280;35016;55.674;37.468;2023-02-11T00:21:26;98943.88;;;-2.12;66.33
49178;BME280;35016;55.674;37.468;2023-02-11T00:23:53;98935.28;;;-2.14;66.30
49178;BME280;35016;55.674;37.468;2023-02-11T00:26:24;98938.31;;;-2.17;66.16
49178;BME280;35016;55.674;37.468;2023-02-11T00:28:54;98946.66;;;-2.21;66.66
49178;BME280;35016;55.674;37.468;2023-02-11T00:31:24;98944.19;;;-2.22;66.38
49178;BME280;35016;55.674;37.468;2023-02-11T00:33:58;98948.69;;;-2.23;66.22
49178;BME280;35016;55.674;37.468;2023-02-11T00:36:27;98945.41;;;-2.25;66.41
49178;BME280;35016;55.674;37.468;2023-02-11T00:38:55;98956.59;;;-2.29;66.99
49178;BME280;35016;55.674;37.468;2023-02-11T00:41:22;98936.19;;;-2.29;66.72
49178;BME280;35016;55.674;37.468;2023-02-11T00:43:52;98944.69;;;-2.33;66.25
49178;BME280;35016;55.674;37.468;2023-02-11T00:46:20;98957.34;;;-2.35;66.68
49178;BME280;35016;55.674;37.468;2023-02-11T00:48:47;98968.16;;;-2.37;66.38
49178;BME280;35016;55.674;37.468;2023-02-11T00:51:22;98961.81;;;-2.36;66.31
49178;BME280;35016;55.674;37.468;2023-02-11T00:53:49;98956.72;;;-2.37;66.14
49178;BME280;35016;55.674;37.468;2023-02-11T00:56:17;98964.03;;;-2.39;66.28
49178;BME280;35016;55.674;37.468;2023-02-11T00:58:48;98969.34;;;-2.39;66.47
49178;BME280;35016;55.674;37.468;2023-02-11T01:01:23;98959.13;;;-2.42;66.55
49178;BME280;35016;55.674;37.468;2023-02-11T01:03:53;98960.94;;;-2.43;67.51
49178;BME280;35016;55.674;37.468;2023-02-11T01:06:22;98971.56;;;-2.43;67.03
49178;BME280;35016;55.674;37.468;2023-02-11T01:08:51;98962.16;;;-2.45;66.56
49178;BME280;35016;55.674;37.468;2023-02-11T01:11:19;98961.34;;;-2.46;66.87
49178;BME280;35016;55.674;37.468;2023-02-11T01:13:47;98966.84;;;-2.47;66.62
49178;BME280;35016;55.674;37.468;2023-02-11T01:16:21;98973.97;;;-2.48;67.01
49178;BME280;35016;55.674;37.468;2023-02-11T01:18:51;98974.78;;;-2.47;66.38
49178;BME280;35016;55.674;37.468;2023-02-11T01:21:24;98980.28;;;-2.49;66.28
49178;BME280;35016;55.674;37.468;2023-02-11T01:23:53;98991.72;;;-2.48;66.63
49178;BME280;35016;55.674;37.468;2023-02-11T01:26:23;98991.09;;;-2.51;66.21
49178;BME280;35016;55.674;37.468;2023-02-11T01:28:53;98992.13;;;-2.52;66.60
49178;BME280;35016;55.674;37.468;2023-02-11T01:31:26;98989.66;;;-2.53;66.75
49178;BME280;35016;55.674;37.468;2023-02-11T01:33:53;98990.66;;;-2.54;66.37
49178;BME280;35016;55.674;37.468;2023-02-11T01:36:21;98995.16;;;-2.55;66.24
49178;BME280;35016;55.674;37.468;2023-02-11T01:38:48;99000.44;;;-2.55;66.08
49178;BME280;35016;55.674;37.468;2023-02-11T01:41:19;99000.44;;;-2.55;66.34
49178;BME280;35016;55.674;37.468;2023-02-11T01:43:49;98995.97;;;-2.54;66.42
49178;BME280;35016;55.674;37.468;2023-02-11T01:49:09;98984.53;;;-2.55;66.80
49178;BME280;35016;55.674;37.468;2023-02-11T01:51:41;99002.53;;;-2.50;66.61
49178;BME280;35016;55.674;37.468;2023-02-11T01:54:12;99004.06;;;-2.41;66.48
49178;BME280;35016;55.674;37.468;2023-02-11T01:57:00;98997.44;;;-2.30;66.41
49178;BME280;35016;55.674;37.468;2023-02-11T02:02:21;99000.66;;;-2.13;66.81
49178;BME280;35016;55.674;37.468;2023-02-11T02:04:53;98980.09;;;-2.05;66.35
49178;BME280;35016;55.674;37.468;2023-02-11T02:07:35;98995.47;;;-2.00;66.45
49178;BME280;35016;55.674;37.468;2023-02-11T02:10:08;98995.53;;;-1.94;66.36
49178;BME280;35016;55.674;37.468;2023-02-11T02:12:37;98981.66;;;-1.89;66.05
49178;BME280;35016;55.674;37.468;2023-02-11T02:15:17;98989.25;;;-1.86;66.11
49178;BME280;35016;55.674;37.468;2023-02-11T02:18:09;98985.38;;;-1.83;66.32
49178;BME280;35016;55.674;37.468;2023-02-11T02:34:03;99003.91;;;-1.69;66.41
49178;BME280;35016;55.674;37.468;2023-02-11T02:36:38;98993.47;;;-1.70;66.26
49178;BME280;35016;55.674;37.468;2023-02-11T02:39:14;98986.13;;;-1.68;66.01
49178;BME280;35016;55.674;37.468;2023-02-11T02:41:43;99000.25;;;-1.68;66.25
49178;BME280;35016;55.674;37.468;2023-02-11T02:44:12;99002.91;;;-1.68;66.34
49178;BME280;35016;55.674;37.468;2023-02-11T02:46:40;98993.09;;;-1.67;66.33
49178;BME280;35016;55.674;37.468;2023-02-11T02:49:12;98995.56;;;-1.66;66.30
49178;BME280;35016;55.674;37.468;2023-02-11T03:02:35;98986.94;;;-1.68;66.46
49178;BME280;35016;55.674;37.468;2023-02-11T03:05:17;98985.31;;;-1.69;66.15
49178;BME280;35016;55.674;37.468;2023-02-11T03:10:28;98983.66;;;-1.70;66.27
49178;BME280;35016;55.674;37.468;2023-02-11T03:12:56;98983.03;;;-1.72;66.01
49178;BME280;35016;55.674;37.468;2023-02-11T03:15:24;98988.56;;;-1.73;66.03
49178;BME280;35016;55.674;37.468;2023-02-11T03:17:53;98987.91;;;-1.75;66.25
49178;BME280;35016;55.674;37.468;2023-02-11T03:20:24;98978.47;;;-1.78;66.13
49178;BME280;35016;55.674;37.468;2023-02-11T03:23:06;98984.81;;;-1.79;66.20
49178;BME280;35016;55.674;37.468;2023-02-11T03:25:36;98988.25;;;-1.85;66.21
49178;BME280;35016;55.674;37.468;2023-02-11T03:28:13;98986.16;;;-1.90;66.27
49178;BME280;35016;55.674;37.468;2023-02-11T03:30:44;98979.97;;;-1.97;65.85
49178;BME280;35016;55.674;37.468;2023-02-11T03:33:25;98978.25;;;-2.04;66.06
49178;BME280;35016;55.674;37.468;2023-02-11T03:35:53;98965.94;;;-2.12;66.11
49178;BME280;35016;55.674;37.468;2023-02-11T03:38:30;98960.56;;;-2.19;65.87
49178;BME280;35016;55.674;37.468;2023-02-11T03:40:58;98971.16;;;-2.25;66.04
49178;BME280;35016;55.674;37.468;2023-02-11T03:43:39;98968.25;;;-2.30;66.21
49178;BME280;35016;55.674;37.468;2023-02-11T03:46:10;98982.25;;;-2.36;66.38
49178;BME280;35016;55.674;37.468;2023-02-11T03:48:40;98964.25;;;-2.41;65.98
49178;BME280;35016;55.674;37.468;2023-02-11T03:51:10;98968.47;;;-2.46;65.97
49178;BME280;35016;55.674;37.468;2023-02-11T03:53:42;98962.72;;;-2.50;66.28
49178;BME280;35016;55.674;37.468;2023-02-11T03:56:16;98963.09;;;-2.53;66.35
49178;BME280;35016;55.674;37.468;2023-02-11T03:58:49;98957.34;;;-2.57;66.22
49178;BME280;35016;55.674;37.468;2023-02-11T04:01:18;98969.34;;;-2.61;65.84
49178;BME280;35016;55.674;37.468;2023-02-11T04:03:48;98957.44;;;-2.65;66.54
49178;BME280;35016;55.674;37.468;2023-02-11T04:06:15;98955.38;;;-2.69;66.01
49178;BME280;35016;55.674;37.468;2023-02-11T04:08:46;98959.41;;;-2.73;66.11
49178;BME280;35016;55.674;37.468;2023-02-11T04:11:13;98958.16;;;-2.77;66.11
49178;BME280;35016;55.674;37.468;2023-02-11T04:13:47;98955.69;;;-2.79;66.61
49178;BME280;35016;55.674;37.468;2023-02-11T04:16:17;98964.19;;;-2.84;66.43
49178;BME280;35016;55.674;37.468;2023-02-11T04:18:46;98958.06;;;-2.84;66.29
49178;BME280;35016;55.674;37.468;2023-02-11T04:21:13;98954.16;;;-2.88;65.80
49178;BME280;35016;55.674;37.468;2023-02-11T04:23:41;98953.50;;;-2.90;66.28
49178;BME280;35016;55.674;37.468;2023-02-11T04:26:12;98960.19;;;-2.94;66.03
49178;BME280;35016;55.674;37.468;2023-02-11T04:28:41;98984.25;;;-2.96;66.42
49178;BME280;35016;55.674;37.468;2023-02-11T04:31:12;98950.13;;;-2.99;65.92
49178;BME280;35016;55.674;37.468;2023-02-11T04:33:41;98948.69;;;-3.01;66.46
49178;BME280;35016;55.674;37.468;2023-02-11T04:36:11;98943.56;;;-3.03;66.21
49178;BME280;35016;55.674;37.468;2023-02-11T04:38:43;98952.72;;;-3.05;66.47
49178;BME280;35016;55.674;37.468;2023-02-11T04:41:12;98937.00;;;-3.07;66.67
49178;BME280;35016;55.674;37.468;2023-02-11T04:43:45;98940.66;;;-3.08;66.38
49178;BME280;35016;55.674;37.468;2023-02-11T04:46:15;98940.84;;;-3.09;66.06
49178;BME280;35016;55.674;37.468;2023-02-11T04:48:42;98927.75;;;-3.11;66.74
49178;BME280;35016;55.674;37.468;2023-02-11T04:51:12;98956.31;;;-3.13;66.16
49178;BME280;35016;55.674;37.468;2023-02-11T04:53:43;98956.31;;;-3.13;66.47
49178;BME280;35016;55.674;37.468;2023-02-11T04:56:14;98963.88;;;-3.10;66.17
49178;BME280;35016;55.674;37.468;2023-02-11T04:58:46;98952.09;;;-3.07;66.43
49178;BME280;35016;55.674;37.468;2023-02-11T05:01:14;98958.03;;;-3.05;66.14
49178;BME280;35016;55.674;37.468;2023-02-11T05:03:41;98956.63;;;-3.01;66.18
49178;BME280;35016;55.674;37.468;2023-02-11T05:06:13;98959.53;;;-2.96;66.28
49178;BME280;35016;55.674;37.468;2023-02-11T05:08:40;98964.09;;;-2.90;66.83
49178;BME280;35016;55.674;37.468;2023-02-11T05:11:16;98959.09;;;-2.85;66.68
49178;BME280;35016;55.674;37.468;2023-02-11T05:13:46;98950.38;;;-2.79;66.41
49178;BME280;35016;55.674;37.468;2023-02-11T05:16:16;98973.50;;;-2.73;66.29
49178;BME280;35016;55.674;37.468;2023-02-11T05:18:43;98953.53;;;-2.69;66.53
49178;BME280;35016;55.674;37.468;2023-02-11T05:21:13;98965.22;;;-2.63;66.16
49178;BME280;35016;55.674;37.468;2023-02-11T05:23:44;98959.00;;;-2.56;66.45
49178;BME280;35016;55.674;37.468;2023-02-11T05:26:14;98951.09;;;-2.49;66.38
49178;BME280;35016;55.674;37.468;2023-02-11T05:28:42;98961.59;;;-2.41;66.55
49178;BME280;35016;55.674;37.468;2023-02-11T05:31:12;98947.34;;;-2.33;66.56
49178;BME280;35016;55.674;37.468;2023-02-11T05:33:42;98949.28;;;-2.27;66.50
49178;BME280;35016;55.674;37.468;2023-02-11T05:36:10;98951.78;;;-2.19;66.22
49178;BME280;35016;55.674;37.468;2023-02-11T05:38:39;98952.84;;;-2.13;66.36
49178;BME280;35016;55.674;37.468;2023-02-11T05:41:08;98943.88;;;-2.12;66.18
49178;BME280;35016;55.674;37.468;2023-02-11T05:43:38;98945.75;;;-2.06;66.30
49178;BME280;35016;55.674;37.468;2023-02-11T05:46:05;98939.22;;;-2.04;66.42
49178;BME280;35016;55.674;37.468;2023-02-11T05:48:32;98954.81;;;-2.01;66.37
49178;BME280;35016;55.674;37.468;2023-02-11T05:50:59;98947.28;;;-1.97;66.27
49178;BME280;35016;55.674;37.468;2023-02-11T05:53:26;98943.22;;;-1.93;66.47
49178;BME280;35016;55.674;37.468;2023-02-11T05:55:53;98952.25;;;-1.88;66.31
49178;BME280;35016;55.674;37.468;2023-02-11T05:58:20;98950.41;;;-1.87;66.24
49178;BME280;35016;55.674;37.468;2023-02-11T06:00:46;98947.38;;;-1.84;66.28
49178;BME280;35016;55.674;37.468;2023-02-11T06:03:13;98951.84;;;-1.84;66.37
49178;BME280;35016;55.674;37.468;2023-02-11T06:05:44;98955.97;;;-1.82;66.54
49178;BME280;35016;55.674;37.468;2023-02-11T06:08:11;98951.47;;;-1.81;66.44
49178;BME280;35016;55.674;37.468;2023-02-11T06:10:38;98955.38;;;-1.77;66.44
49178;BME280;35016;55.674;37.468;2023-02-11T06:13:07;98963.16;;;-1.76;66.28
49178;BME280;35016;55.674;37.468;2023-02-11T06:15:35;98957.22;;;-1.78;66.42
49178;BME280;35016;55.674;37.468;2023-02-11T06:18:02;98952.69;;;-1.84;66.41
49178;BME280;35016;55.674;37.468;2023-02-11T06:20:29;98941.41;;;-1.86;66.81
49178;BME280;35016;55.674;37.468;2023-02-11T06:22:56;98944.06;;;-1.86;66.66
49178;BME280;35016;55.674;37.468;2023-02-11T06:25:23;98953.31;;;-1.82;66.70
49178;BME280;35016;55.674;37.468;2023-02-11T06:27:50;98946.59;;;-1.78;66.54
49178;BME280;35016;55.674;37.468;2023-02-11T06:30:17;98947.41;;;-1.77;66.57
49178;BME280;35016;55.674;37.468;2023-02-11T06:32:44;98940.88;;;-1.75;66.62
49178;BME280;35016;55.674;37.468;2023-02-11T06:35:12;98940.31;;;-1.70;66.73
49178;BME280;35016;55.674;37.468;2023-02-11T06:37:40;98956.47;;;-1.72;66.52
49178;BME280;35016;55.674;37.468;2023-02-11T06:40:07;98950.06;;;-1.77;66.25
49178;BME280;35016;55.674;37.468;2023-02-11T06:42:34;98945.53;;;-1.83;66.44
49178;BME280;35016;55.674;37.468;2023-02-11T06:45:02;98949.00;;;-1.83;66.78
49178;BME280;35016;55.674;37.468;2023-02-11T06:47:31;98941.66;;;-1.81;66.81
49178;BME280;35016;55.674;37.468;2023-02-11T06:49:58;98925.94;;;-1.76;66.68
49178;BME280;35016;55.674;37.468;2023-02-11T06:52:25;98933.38;;;-1.71;66.70
49178;BME280;35016;55.674;37.468;2023-02-11T06:54:53;98926.84;;;-1.69;66.62
49178;BME280;35016;55.674;37.468;2023-02-11T06:57:20;98931.38;;;-1.63;66.33
49178;BME280;35016;55.674;37.468;2023-02-11T06:59:48;98941.81;;;-1.61;66.42
49178;BME280;35016;55.674;37.468;2023-02-11T07:02:15;98942.00;;;-1.63;66.43
49178;BME280;35016;55.674;37.468;2023-02-11T07:04:46;98944.66;;;-1.63;66.22
49178;BME280;35016;55.674;37.468;2023-02-11T07:07:13;98944.66;;;-1.63;66.49
49178;BME280;35016;55.674;37.468;2023-02-11T07:09:40;98943.44;;;-1.60;66.52
49178;BME280;35016;55.674;37.468;2023-02-11T07:12:08;98947.16;;;-1.54;66.36
49178;BME280;35016;55.674;37.468;2023-02-11T07:14:35;98950.25;;;-1.51;66.41
49178;BME280;35016;55.674;37.468;2023-02-11T07:17:02;98949.84;;;-1.48;66.25
49178;BME280;35016;55.674;37.468;2023-02-11T07:19:30;98942.31;;;-1.44;66.01
49178;BME280;35016;55.674;37.468;2023-02-11T07:21:57;98937.47;;;-1.34;66.35
49178;BME280;35016;55.674;37.468;2023-02-11T07:24:24;98938.94;;;-1.25;66.39
49178;BME280;35016;55.674;37.468;2023-02-11T07:26:51;98939.97;;;-1.19;66.16
49178;BME280;35016;55.674;37.468;2023-02-11T07:29:18;98924.84;;;-1.19;66.13
49178;BME280;35016;55.674;37.468;2023-02-11T07:31:45;98931.44;;;-1.15;66.23
49178;BME280;35016;55.674;37.468;2023-02-11T07:34:13;98922.88;;;-1.04;66.45
49178;BME280;35016;55.674;37.468;2023-02-11T07:36:39;98935.78;;;-0.94;66.06
49178;BME280;35016;55.674;37.468;2023-02-11T07:39:09;98934.16;;;-0.88;66.22
49178;BME280;35016;55.674;37.468;2023-02-11T07:41:36;98925.16;;;-0.87;66.10
49178;BME280;35016;55.674;37.468;2023-02-11T07:44:03;98923.72;;;-0.90;65.96
49178;BME280;35016;55.674;37.468;2023-02-11T07:46:31;98924.13;;;-0.93;66.06
49178;BME280;35016;55.674;37.468;2023-02-11T07:48:58;98919.19;;;-0.96;66.12
49178;BME280;35016;55.674;37.468;2023-02-11T07:51:26;98927.38;;;-0.98;66.34
49178;BME280;35016;55.674;37.468;2023-02-11T07:53:54;98920.22;;;-0.97;66.33
49178;BME280;35016;55.674;37.468;2023-02-11T07:56:23;98904.69;;;-0.94;66.48
49178;BME280;35016;55.674;37.468;2023-02-11T07:58:50;98915.09;;;-0.99;66.39
49178;BME280;35016;55.674;37.468;2023-02-11T08:01:18;98922.47;;;-1.01;66.37
49178;BME280;35016;55.674;37.468;2023-02-11T08:03:45;98910.41;;;-0.97;66.71
49178;BME280;35016;55.674;37.468;2023-02-11T08:06:13;98910.88;;;-0.86;66.64
49178;BME280;35016;55.674;37.468;2023-02-11T08:08:41;98909.44;;;-0.76;66.56
49178;BME280;35016;55.674;37.468;2023-02-11T08:11:13;98902.91;;;-0.67;66.40
49178;BME280;35016;55.674;37.468;2023-02-11T08:13:40;98910.69;;;-0.58;66.10
49178;BME280;35016;55.674;37.468;2023-02-11T08:16:21;98898.03;;;-0.56;66.08
49178;BME280;35016;55.674;37.468;2023-02-11T08:18:49;98896.59;;;-0.52;66.20
49178;BME280;35016;55.674;37.468;2023-02-11T08:21:19;98882.66;;;-0.48;66.34
49178;BME280;35016;55.674;37.468;2023-02-11T08:23:46;98885.53;;;-0.43;66.22
49178;BME280;35016;55.674;37.468;2023-02-11T08:26:33;98884.72;;;-0.43;66.05
49178;BME280;35016;55.674;37.468;2023-02-11T08:29:01;98878.78;;;-0.39;65.93
49178;BME280;35016;55.674;37.468;2023-02-11T08:31:29;98875.53;;;-0.27;65.99
49178;BME280;35016;55.674;37.468;2023-02-11T08:33:57;98871.81;;;-0.20;66.16
49178;BME280;35016;55.674;37.468;2023-02-11T08:36:25;98869.34;;;-0.15;66.04
49178;BME280;35016;55.674;37.468;2023-02-11T08:38:53;98865.25;;;-0.11;66.14
49178;BME280;35016;55.674;37.468;2023-02-11T08:41:37;98866.06;;;-0.17;65.84
49178;BME280;35016;55.674;37.468;2023-02-11T08:44:04;98857.47;;;-0.19;66.15
49178;BME280;35016;55.674;37.468;2023-02-11T08:46:31;98859.31;;;-0.19;66.27
49178;BME280;35016;55.674;37.468;2023-02-11T08:48:58;98849.69;;;-0.20;66.16
49178;BME280;35016;55.674;37.468;2023-02-11T08:51:26;98845.78;;;-0.18;66.31
49178;BME280;35016;55.674;37.468;2023-02-11T08:53:53;98844.97;;;-0.18;65.97
49178;BME280;35016;55.674;37.468;2023-02-11T08:56:21;98836.97;;;-0.18;66.26
49178;BME280;35016;55.674;37.468;2023-02-11T08:58:57;98827.13;;;-0.18;66.29
49178;BME280;35016;55.674;37.468;2023-02-11T09:01:25;98811.97;;;-0.17;66.42
49178;BME280;35016;55.674;37.468;2023-02-11T09:03:52;98814.03;;;-0.19;66.41
49178;BME280;35016;55.674;37.468;2023-02-11T09:06:20;98809.94;;;-0.22;66.31
49178;BME280;35016;55.674;37.468;2023-02-11T09:08:49;98794.38;;;-0.25;66.35
49178;BME280;35016;55.674;37.468;2023-02-11T09:11:17;98801.53;;;-0.25;66.21
49178;BME280;35016;55.674;37.468;2023-02-11T09:13:47;98790.44;;;-0.29;66.10
49178;BME280;35016;55.674;37.468;2023-02-11T09:16:21;98778.81;;;-0.28;66.58
49178;BME280;35016;55.674;37.468;2023-02-11T09:18:48;98768.16;;;-0.28;66.30
49178;BME280;35016;55.674;37.468;2023-02-11T09:21:16;98766.69;;;-0.31;66.34
49178;BME280;35016;55.674;37.468;2023-02-11T09:23:43;98754.00;;;-0.28;66.35
49178;BME280;35016;55.674;37.468;2023-02-11T09:26:14;98753.59;;;-0.25;66.06
49178;BME280;35016;55.674;37.468;2023-02-11T09:28:41;98733.69;;;-0.16;66.03
49178;BME280;35016;55.674;37.468;2023-02-11T09:31:09;98740.00;;;-0.11;66.15
49178;BME280;35016;55.674;37.468;2023-02-11T09:33:40;98728.53;;;-0.11;66.16
49178;BME280;35016;55.674;37.468;2023-02-11T09:36:14;98731.66;;;-0.21;65.98
49178;BME280;35016;55.674;37.468;2023-02-11T09:38:41;98739.84;;;-0.29;65.90
49178;BME280;35016;55.674;37.468;2023-02-11T09:41:16;98738.00;;;-0.35;65.96
49178;BME280;35016;55.674;37.468;2023-02-11T09:43:56;98735.97;;;-0.40;65.98
49178;BME280;35016;55.674;37.468;2023-02-11T09:46:24;98722.47;;;-0.45;66.15
49178;BME280;35016;55.674;37.468;2023-02-11T09:48:53;98725.16;;;-0.51;66.26
49178;BME280;35016;55.674;37.468;2023-02-11T09:54:10;98719.19;;;-0.60;66.24
49178;BME280;35016;55.674;37.468;2023-02-11T09:56:39;98714.09;;;-0.62;66.15
49178;BME280;35016;55.674;37.468;2023-02-11T09:59:09;98713.28;;;-0.62;65.98
49178;BME280;35016;55.674;37.468;2023-02-11T10:04:13;98703.66;;;-0.56;65.85
49178;BME280;35016;55.674;37.468;2023-02-11T10:06:56;98710.00;;;-0.57;65.86
49178;BME280;35016;55.674;37.468;2023-02-11T10:09:36;98699.16;;;-0.56;65.83
49178;BME280;35016;55.674;37.468;2023-02-11T10:12:27;98696.88;;;-0.59;65.97
49178;BME280;35016;55.674;37.468;2023-02-11T10:17:43;98686.84;;;-0.64;66.00
49178;BME280;35016;55.674;37.468;2023-02-11T10:27:49;98658.19;;;-0.55;65.84
49178;BME280;35016;55.674;37.468;2023-02-11T10:30:21;98660.44;;;-0.52;65.68
49178;BME280;35016;55.674;37.468;2023-02-11T10:33:02;98662.47;;;-0.47;65.67
49178;BME280;35016;55.674;37.468;2023-02-11T10:35:57;98640.53;;;-0.43;65.64
49178;BME280;35016;55.674;37.468;2023-02-11T10:38:24;98637.00;;;-0.37;65.63
49178;BME280;35016;55.674;37.468;2023-02-11T10:44:36;98617.28;;;-0.16;65.78
49178;BME280;35016;55.674;37.468;2023-02-11T10:47:06;98616.41;;;-0.10;65.78
49178;BME280;35016;55.674;37.468;2023-02-11T10:49:41;98610.44;;;-0.05;65.83
49178;BME280;35016;55.674;37.468;2023-02-11T10:52:22;98611.03;;;-0.03;65.44
49178;BME280;35016;55.674;37.468;2023-02-11T10:54:57;98604.47;;;-0.01;65.70
49178;BME280;35016;55.674;37.468;2023-02-11T10:57:40;98595.03;;;0.04;65.56
49178;BME280;35016;55.674;37.468;2023-02-11T11:03:21;98589.44;;;0.12;65.47
49178;BME280;35016;55.674;37.468;2023-02-11T11:08:45;98581.75;;;0.28;65.51
49178;BME280;35016;55.674;37.468;2023-02-11T11:11:13;98562.63;;;0.38;65.51
49178;BME280;35016;55.674;37.468;2023-02-11T11:16:26;98571.00;;;0.42;65.60
49178;BME280;35016;55.674;37.468;2023-02-11T11:19:36;98565.06;;;0.40;65.53
49178;BME280;35016;55.674;37.468;2023-02-11T11:21:45;98560.75;;;0.39;65.10
49178;BME280;35016;55.674;37.468;2023-02-11T11:24:58;98557.72;;;0.35;65.09
49178;BME280;35016;55.674;37.468;2023-02-11T11:27:01;98536.81;;;0.32;65.57
49178;BME280;35016;55.674;37.468;2023-02-11T11:29:39;98519.81;;;0.26;65.45
49178;BME280;35016;55.674;37.468;2023-02-11T11:32:29;98518.63;;;0.22;65.42
49178;BME280;35016;55.674;37.468;2023-02-11T11:34:59;98513.13;;;0.17;65.32
49178;BME280;35016;55.674;37.468;2023-02-11T11:39:55;98518.31;;;0.12;65.80
49178;BME280;35016;55.674;37.468;2023-02-11T11:42:24;98507.69;;;0.06;65.35
49178;BME280;35016;55.674;37.468;2023-02-11T11:44:55;98506.72;;;0.00;65.40
49178;BME280;35016;55.674;37.468;2023-02-11T11:53:00;98489.63;;;0.08;65.24
49178;BME280;35016;55.674;37.468;2023-02-11T11:55:28;98489.25;;;0.04;65.26
49178;BME280;35016;55.674;37.468;2023-02-11T11:57:56;98466.53;;;0.02;65.46
49178;BME280;35016;55.674;37.468;2023-02-11T12:00:30;98479.22;;;-0.01;65.52
49178;BME280;35016;55.674;37.468;2023-02-11T12:13:15;98464.44;;;-0.21;65.22
49178;BME280;35016;55.674;37.468;2023-02-11T12:23:40;98443.41;;;-0.36;65.24
49178;BME280;35016;55.674;37.468;2023-02-11T12:31:17;98436.34;;;-0.49;65.28
49178;BME280;35016;55.674;37.468;2023-02-11T12:34:02;98424.28;;;-0.51;65.29
49178;BME280;35016;55.674;37.468;2023-02-11T12:39:23;98422.28;;;-0.63;65.47
49178;BME280;35016;55.674;37.468;2023-02-11T12:55:23;98375.53;;;-0.83;65.35
49178;BME280;35016;55.674;37.468;2023-02-11T12:57:52;98365.09;;;-0.85;65.07
49178;BME280;35016;55.674;37.468;2023-02-11T13:00:26;98368.81;;;-0.86;65.37
49178;BME280;35016;55.674;37.468;2023-02-11T13:03:05;98351.59;;;-0.83;64.97
49178;BME280;35016;55.674;37.468;2023-02-11T13:05:36;98352.03;;;-0.86;65.31
49178;BME280;35016;55.674;37.468;2023-02-11T13:08:05;98337.69;;;-0.85;65.19
49178;BME280;35016;55.674;37.468;2023-02-11T13:10:37;98332.53;;;-0.87;64.99
49178;BME280;35016;55.674;37.468;2023-02-11T13:13:13;98324.78;;;-0.88;65.15
49178;BME280;35016;55.674;37.468;2023-02-11T13:26:13;98298.97;;;-0.81;65.06
49178;BME280;35016;55.674;37.468;2023-02-11T13:31:21;98285.69;;;-0.88;65.17
49178;BME280;35016;55.674;37.468;2023-02-11T13:33:52;98278.94;;;-0.90;65.14
49178;BME280;35016;55.674;37.468;2023-02-11T13:36:26;98280.19;;;-0.93;65.05
49178;BME280;35016;55.674;37.468;2023-02-11T13:38:58;98269.78;;;-0.95;65.17
49178;BME280;35016;55.674;37.468;2023-02-11T13:41:27;98266.13;;;-1.00;65.32
49178;BME280;35016;55.674;37.468;2023-02-11T13:46:24;98242.63;;;-1.03;65.21
49178;BME280;35016;55.674;37.468;2023-02-11T13:48:53;98233.84;;;-1.04;65.27
49178;BME280;35016;55.674;37.468;2023-02-11T13:51:36;98231.38;;;-1.05;65.35
49178;BME280;35016;55.674;37.468;2023-02-11T13:54:04;98227.91;;;-1.06;65.17
49178;BME280;35016;55.674;37.468;2023-02-11T13:56:37;98216.47;;;-1.06;65.13
49178;BME280;35016;55.674;37.468;2023-02-11T13:59:06;98210.53;;;-1.08;65.19
49178;BME280;35016;55.674;37.468;2023-02-11T14:02:02;98202.56;;;-1.08;65.25
49178;BME280;35016;55.674;37.468;2023-02-11T14:11:00;98167.59;;;-1.12;65.29
49178;BME280;35016;55.674;37.468;2023-02-11T14:13:35;98171.31;;;-1.13;65.18
49178;BME280;35016;55.674;37.468;2023-02-11T14:18:56;98145.53;;;-1.19;65.42
49178;BME280;35016;55.674;37.468;2023-02-11T14:37:08;98100.47;;;-1.32;65.60
49178;BME280;35016;55.674;37.468;2023-02-11T14:39:44;98102.53;;;-1.34;65.63
49178;BME280;35016;55.674;37.468;2023-02-11T14:42:17;98084.94;;;-1.35;65.64
49178;BME280;35016;55.674;37.468;2023-02-11T14:44:46;98084.34;;;-1.37;65.73
49178;BME280;35016;55.674;37.468;2023-02-11T14:47:16;98079.25;;;-1.39;65.95
49178;BME280;35016;55.674;37.468;2023-02-11T14:49:44;98065.16;;;-1.39;65.91
49178;BME280;35016;55.674;37.468;2023-02-11T14:52:17;98066.78;;;-1.38;66.00
49178;BME280;35016;55.674;37.468;2023-02-11T14:54:48;98064.13;;;-1.38;66.01
49178;BME280;35016;55.674;37.468;2023-02-11T14:57:16;98052.69;;;-1.39;65.90
49178;BME280;35016;55.674;37.468;2023-02-11T14:59:56;98046.53;;;-1.39;66.00
49178;BME280;35016;55.674;37.468;2023-02-11T15:02:36;98050.84;;;-1.38;65.94
49178;BME280;35016;55.674;37.468;2023-02-11T15:07:52;98028.75;;;-1.39;65.91
49178;BME280;35016;55.674;37.468;2023-02-11T15:10:28;98023.66;;;-1.40;66.01
49178;BME280;35016;55.674;37.468;2023-02-11T15:12:57;98016.50;;;-1.40;66.15
49178;BME280;35016;55.674;37.468;2023-02-11T15:15:25;98013.25;;;-1.42;66.27
49178;BME280;35016;55.674;37.468;2023-02-11T15:17:53;98007.69;;;-1.40;65.89
49178;BME280;35016;55.674;37.468;2023-02-11T15:20:23;98005.63;;;-1.38;66.03
49178;BME280;35016;55.674;37.468;2023-02-11T15:22:55;98003.78;;;-1.38;66.31
49178;BME280;35016;55.674;37.468;2023-02-11T15:25:23;97999.28;;;-1.37;66.20
49178;BME280;35016;55.674;37.468;2023-02-11T15:27:51;97996.19;;;-1.34;66.19
49178;BME280;35016;55.674;37.468;2023-02-11T15:32:53;97979.94;;;-1.26;66.37
49178;BME280;35016;55.674;37.468;2023-02-11T15:35:29;97983.19;;;-1.24;66.39
49178;BME280;35016;55.674;37.468;2023-02-11T15:37:57;97972.31;;;-1.22;66.25
49178;BME280;35016;55.674;37.468;2023-02-11T15:40:28;97972.09;;;-1.21;66.23
49178;BME280;35016;55.674;37.468;2023-02-11T15:42:59;97970.03;;;-1.19;66.28